sensor_id;sensor_type;location;lat;lon;timestamp;pressure;altitude;pressure_sealevel;temperature;humidity
7433;BME280;32233;49.500;7.764;2023-03-13T00:01:52;97824.00;;;8.82;85.08
7433;BME280;32233;49.500;7.764;2023-03-13T00:04:18;97826.19;;;8.85;85.65
7433;BME280;32233;49.500;7.764;2023-03-13T00:06:45;97817.28;;;8.86;85.30
7433;BME280;32233;49.500;7.764;2023-03-13T00:09:14;97813.41;;;8.89;85.47
7433;BME280;32233;49.500;7.764;2023-03-13T00:11:41;97809.56;;;8.91;84.97
7433;BME280;32233;49.500;7.764;2023-03-13T00:14:08;97803.72;;;8.83;85.49
7433;BME280;32233;49.500;7.764;2023-03-13T00:16:35;97794.78;;;8.90;85.55
7433;BME280;32233;49.500;7.764;2023-03-13T00:19:03;97785.22;;;8.89;85.81
7433;BME280;32233;49.500;7.764;2023-03-13T00:21:31;97783.22;;;8.85;85.95
7433;BME280;32233;49.500;7.764;2023-03-13T00:23:59;97771.66;;;8.92;85.96
7433;BME280;32233;49.500;7.764;2023-03-13T00:26:27;97776.53;;;8.89;86.62
7433;BME280;32233;49.500;7.764;2023-03-13T00:28:53;97772.66;;;8.91;86.36
7433;BME280;32233;49.500;7.764;2023-03-13T00:31:30;97762.53;;;8.88;86.35
7433;BME280;32233;49.500;7.764;2023-03-13T00:33:59;97769.81;;;9.00;86.48
7433;BME280;32233;49.500;7.764;2023-03-13T00:36:32;97766.56;;;8.98;86.81
7433;BME280;32233;49.500;7.764;2023-03-13T00:39:01;97761.28;;;8.98;86.66
7433;BME280;32233;49.500;7.764;2023-03-13T00:41:30;97748.72;;;9.06;86.28
7433;BME280;32233;49.500;7.764;2023-03-13T00:43:57;97752.34;;;9.05;86.75
7433;BME280;32233;49.500;7.764;2023-03-13T00:46:26;97761.88;;;9.06;86.71
7433;BME280;32233;49.500;7.764;2023-03-13T00:48:53;97753.34;;;9.11;87.13
7433;BME280;32233;49.500;7.764;2023-03-13T00:51:21;97744.59;;;9.17;86.52
7433;BME280;32233;49.500;7.764;2023-03-13T00:53:49;97731.63;;;9.15;87.02
7433;BME280;32233;49.500;7.764;2023-03-13T00:56:17;97735.66;;;9.18;87.48
7433;BME280;32233;49.500;7.764;2023-03-13T00:58:46;97726.19;;;9.10;87.94
7433;BME280;32233;49.500;7.764;2023-03-13T01:01:19;97738.34;;;9.11;87.88
7433;BME280;32233;49.500;7.764;2023-03-13T01:03:52;97734.03;;;9.17;88.03
7433;BME280;32233;49.500;7.764;2023-03-13T01:06:21;97714.31;;;9.26;87.13
7433;BME280;32233;49.500;7.764;2023-03-13T01:08:48;97714.72;;;9.30;87.05
7433;BME280;32233;49.500;7.764;2023-03-13T01:11:18;97720.22;;;9.28;86.98
7433;BME280;32233;49.500;7.764;2023-03-13T01:13:45;97715.16;;;9.27;87.51
7433;BME280;32233;49.500;7.764;2023-03-13T01:16:18;97712.31;;;9.22;87.85
7433;BME280;32233;49.500;7.764;2023-03-13T01:18:48;97706.22;;;9.28;87.86
7433;BME280;32233;49.500;7.764;2023-03-13T01:21:16;97707.66;;;9.24;87.79
7433;BME280;32233;49.500;7.764;2023-03-13T01:23:45;97706.47;;;9.20;88.35
7433;BME280;32233;49.500;7.764;2023-03-13T01:26:12;97698.56;;;9.20;88.54
7433;BME280;32233;49.500;7.764;2023-03-13T01:28:39;97689.19;;;9.24;88.11
7433;BME280;32233;49.500;7.764;2023-03-13T01:31:27;97694.22;;;9.32;88.17
7433;BME280;32233;49.500;7.764;2023-03-13T01:33:56;97688.53;;;9.35;88.70
7433;BME280;32233;49.500;7.764;2023-03-13T01:36:24;97690.34;;;9.34;89.50
7433;BME280;32233;49.500;7.764;2023-03-13T01:38:53;97684.72;;;9.31;90.76
7433;BME280;32233;49.500;7.764;2023-03-13T01:41:20;97679.69;;;9.23;92.28
7433;BME280;32233;49.500;7.764;2023-03-13T01:43:48;97671.97;;;9.21;93.30
7433;BME280;32233;49.500;7.764;2023-03-13T01:46:17;97663.50;;;9.12;95.67
7433;BME280;32233;49.500;7.764;2023-03-13T01:49:16;97658.53;;;8.91;98.98
7433;BME280;32233;49.500;7.764;2023-03-13T01:52:00;97652.88;;;8.87;100.00
7433;BME280;32233;49.500;7.764;2023-03-13T01:54:41;97654.13;;;8.78;100.00
7433;BME280;32233;49.500;7.764;2023-03-13T01:57:26;97646.03;;;8.73;100.00
7433;BME280;32233;49.500;7.764;2023-03-13T02:02:23;97633.28;;;8.63;100.00
7433;BME280;32233;49.500;7.764;2023-03-13T02:04:54;97635.34;;;8.55;100.00
7433;BME280;32233;49.500;7.764;2023-03-13T02:07:39;97616.75;;;8.50;100.00
7433;BME280;32233;49.500;7.764;2023-03-13T02:10:08;97611.66;;;8.48;100.00
7433;BME280;32233;49.500;7.764;2023-03-13T02:12:38;97615.16;;;8.42;100.00
7433;BME280;32233;49.500;7.764;2023-03-13T02:15:09;97607.06;;;8.37;100.00
7433;BME280;32233;49.500;7.764;2023-03-13T02:17:38;97602.41;;;8.26;100.00
7433;BME280;32233;49.500;7.764;2023-03-13T02:20:06;97593.06;;;8.30;100.00
7433;BME280;32233;49.500;7.764;2023-03-13T02:22:52;97590.84;;;8.20;100.00
7433;BME280;32233;49.500;7.764;2023-03-13T02:28:12;97594.31;;;8.14;100.00
7433;BME280;32233;49.500;7.764;2023-03-13T02:30:42;97570.81;;;8.19;100.00
7433;BME280;32233;49.500;7.764;2023-03-13T02:33:11;97575.91;;;8.21;100.00
7433;BME280;32233;49.500;7.764;2023-03-13T02:35:40;97566.56;;;8.18;100.00
7433;BME280;32233;49.500;7.764;2023-03-13T02:38:13;97568.22;;;8.12;100.00
7433;BME280;32233;49.500;7.764;2023-03-13T02:40:44;97569.84;;;8.07;100.00
7433;BME280;32233;49.500;7.764;2023-03-13T02:43:33;97570.47;;;8.09;100.00
7433;BME280;32233;49.500;7.764;2023-03-13T02:46:17;97560.28;;;8.19;100.00
7433;BME280;32233;49.500;7.764;2023-03-13T02:48:50;97552.63;;;8.11;100.00
7433;BME280;32233;49.500;7.764;2023-03-13T02:51:35;97547.97;;;8.06;100.00
7433;BME280;32233;49.500;7.764;2023-03-13T02:54:08;97540.47;;;8.10;100.00
7433;BME280;32233;49.500;7.764;2023-03-13T02:56:40;97540.47;;;8.10;100.00
7433;BME280;32233;49.500;7.764;2023-03-13T02:59:08;97540.25;;;8.11;100.00
7433;BME280;32233;49.500;7.764;2023-03-13T03:01:38;97536.00;;;8.17;100.00
7433;BME280;32233;49.500;7.764;2023-03-13T03:04:05;97533.38;;;8.17;100.00
7433;BME280;32233;49.500;7.764;2023-03-13T03:06:31;97534.75;;;8.19;100.00
7433;BME280;32233;49.500;7.764;2023-03-13T03:09:00;97539.22;;;8.19;100.00
7433;BME280;32233;49.500;7.764;2023-03-13T03:11:29;97529.91;;;8.23;100.00
7433;BME280;32233;49.500;7.764;2023-03-13T03:14:02;97537.16;;;8.28;100.00
7433;BME280;32233;49.500;7.764;2023-03-13T03:16:34;97529.91;;;8.23;100.00
7433;BME280;32233;49.500;7.764;2023-03-13T03:19:04;97520.16;;;8.30;100.00
7433;BME280;32233;49.500;7.764;2023-03-13T03:21:32;97511.28;;;8.25;100.00
7433;BME280;32233;49.500;7.764;2023-03-13T03:23:59;97520.75;;;8.32;100.00
7433;BME280;32233;49.500;7.764;2023-03-13T03:26:26;97518.72;;;8.28;100.00
7433;BME280;32233;49.500;7.764;2023-03-13T03:28:52;97515.09;;;8.29;100.00
7433;BME280;32233;49.500;7.764;2023-03-13T03:31:19;97505.75;;;8.39;100.00
7433;BME280;32233;49.500;7.764;2023-03-13T03:33:46;97499.47;;;8.40;100.00
7433;BME280;32233;49.500;7.764;2023-03-13T03:36:17;97494.22;;;8.34;100.00
7433;BME280;32233;49.500;7.764;2023-03-13T03:38:45;97489.38;;;8.37;100.00
7433;BME280;32233;49.500;7.764;2023-03-13T03:41:15;97492.59;;;8.39;100.00
7433;BME280;32233;49.500;7.764;2023-03-13T03:43:42;97497.84;;;8.46;100.00
7433;BME280;32233;49.500;7.764;2023-03-13T03:46:14;97481.81;;;8.48;100.00
7433;BME280;32233;49.500;7.764;2023-03-13T03:48:40;97487.31;;;8.46;100.00
7433;BME280;32233;49.500;7.764;2023-03-13T03:51:09;97491.72;;;8.52;100.00
7433;BME280;32233;49.500;7.764;2023-03-13T03:53:39;97492.91;;;8.56;100.00
7433;BME280;32233;49.500;7.764;2023-03-13T03:56:06;97498.38;;;8.61;100.00
7433;BME280;32233;49.500;7.764;2023-03-13T03:58:35;97491.47;;;8.60;100.00
7433;BME280;32233;49.500;7.764;2023-03-13T04:01:14;97489.22;;;8.64;100.00
7433;BME280;32233;49.500;7.764;2023-03-13T04:03:41;97491.81;;;8.71;100.00
7433;BME280;32233;49.500;7.764;2023-03-13T04:06:08;97484.31;;;8.74;100.00
7433;BME280;32233;49.500;7.764;2023-03-13T04:08:35;97482.72;;;8.66;100.00
7433;BME280;32233;49.500;7.764;2023-03-13T04:11:02;97485.53;;;8.72;100.00
7433;BME280;32233;49.500;7.764;2023-03-13T04:13:33;97476.78;;;8.78;100.00
7433;BME280;32233;49.500;7.764;2023-03-13T04:16:05;97459.13;;;8.78;100.00
7433;BME280;32233;49.500;7.764;2023-03-13T04:18:32;97461.94;;;8.83;100.00
7433;BME280;32233;49.500;7.764;2023-03-13T04:21:03;97451.94;;;8.92;100.00
7433;BME280;32233;49.500;7.764;2023-03-13T04:23:37;97454.16;;;8.95;100.00
7433;BME280;32233;49.500;7.764;2023-03-13T04:26:04;97453.34;;;8.95;100.00
7433;BME280;32233;49.500;7.764;2023-03-13T04:28:31;97460.09;;;9.09;100.00
7433;BME280;32233;49.500;7.764;2023-03-13T04:30:59;97469.03;;;9.08;100.00
7433;BME280;32233;49.500;7.764;2023-03-13T04:33:44;97471.91;;;9.06;100.00
7433;BME280;32233;49.500;7.764;2023-03-13T04:36:18;97451.78;;;9.12;100.00
7433;BME280;32233;49.500;7.764;2023-03-13T04:38:58;97460.06;;;9.15;100.00
7433;BME280;32233;49.500;7.764;2023-03-13T04:41:35;97469.00;;;9.14;100.00
7433;BME280;32233;49.500;7.764;2023-03-13T04:44:13;97471.19;;;9.17;100.00
7433;BME280;32233;49.500;7.764;2023-03-13T04:46:53;97468.13;;;9.21;100.00
7433;BME280;32233;49.500;7.764;2023-03-13T04:49:36;97478.09;;;9.18;100.00
7433;BME280;32233;49.500;7.764;2023-03-13T04:52:32;97469.34;;;9.18;100.00
7433;BME280;32233;49.500;7.764;2023-03-13T04:55:12;97469.31;;;9.25;100.00
7433;BME280;32233;49.500;7.764;2023-03-13T04:57:44;97470.91;;;9.26;100.00
7433;BME280;32233;49.500;7.764;2023-03-13T05:00:25;97474.72;;;9.30;100.00
7433;BME280;32233;49.500;7.764;2023-03-13T05:03:08;97467.41;;;9.32;100.00
7433;BME280;32233;49.500;7.764;2023-03-13T05:05:47;97472.53;;;9.27;100.00
7433;BME280;32233;49.500;7.764;2023-03-13T05:08:40;97471.78;;;9.20;100.00
7433;BME280;32233;49.500;7.764;2023-03-13T05:11:25;97465.91;;;9.17;100.00
7433;BME280;32233;49.500;7.764;2023-03-13T05:14:12;97465.72;;;9.19;100.00
7433;BME280;32233;49.500;7.764;2023-03-13T05:16:50;97466.94;;;9.16;100.00
7433;BME280;32233;49.500;7.764;2023-03-13T05:19:39;97461.28;;;9.13;100.00
7433;BME280;32233;49.500;7.764;2023-03-13T05:22:34;97454.19;;;9.13;100.00
7433;BME280;32233;49.500;7.764;2023-03-13T05:25:20;97458.00;;;9.17;100.00
7433;BME280;32233;49.500;7.764;2023-03-13T05:27:56;97456.81;;;9.13;100.00
7433;BME280;32233;49.500;7.764;2023-03-13T05:30:35;97454.38;;;9.18;100.00
7433;BME280;32233;49.500;7.764;2023-03-13T05:33:17;97452.44;;;9.26;100.00
7433;BME280;32233;49.500;7.764;2023-03-13T05:36:03;97446.97;;;9.27;100.00
7433;BME280;32233;49.500;7.764;2023-03-13T05:38:33;97444.91;;;9.29;100.00
7433;BME280;32233;49.500;7.764;2023-03-13T05:41:05;97450.19;;;9.29;100.00
7433;BME280;32233;49.500;7.764;2023-03-13T05:43:50;97447.88;;;9.39;100.00
7433;BME280;32233;49.500;7.764;2023-03-13T05:46:37;97454.91;;;9.46;100.00
7433;BME280;32233;49.500;7.764;2023-03-13T05:49:15;97448.41;;;9.48;100.00
7433;BME280;32233;49.500;7.764;2023-03-13T05:51:56;97439.88;;;9.46;100.00
7433;BME280;32233;49.500;7.764;2023-03-13T05:54:37;97449.19;;;9.49;100.00
7433;BME280;32233;49.500;7.764;2023-03-13T05:57:22;97443.50;;;9.52;100.00
7433;BME280;32233;49.500;7.764;2023-03-13T06:00:03;97433.75;;;9.52;100.00
7433;BME280;32233;49.500;7.764;2023-03-13T06:02:46;97460.50;;;9.56;100.00
7433;BME280;32233;49.500;7.764;2023-03-13T06:05:18;97465.03;;;9.49;100.00
7433;BME280;32233;49.500;7.764;2023-03-13T06:07:45;97473.88;;;9.54;100.00
7433;BME280;32233;49.500;7.764;2023-03-13T06:10:12;97469.78;;;9.58;100.00
7433;BME280;32233;49.500;7.764;2023-03-13T06:12:39;97458.06;;;9.54;100.00
7433;BME280;32233;49.500;7.764;2023-03-13T06:15:10;97459.75;;;9.67;100.00
7433;BME280;32233;49.500;7.764;2023-03-13T06:17:55;97457.19;;;9.60;100.00
7433;BME280;32233;49.500;7.764;2023-03-13T06:20:22;97450.31;;;9.59;100.00
7433;BME280;32233;49.500;7.764;2023-03-13T06:22:48;97464.13;;;9.55;100.00
7433;BME280;32233;49.500;7.764;2023-03-13T06:25:15;97459.25;;;9.58;100.00
7433;BME280;32233;49.500;7.764;2023-03-13T06:27:42;97458.00;;;9.61;100.00
7433;BME280;32233;49.500;7.764;2023-03-13T06:30:09;97460.59;;;9.67;100.00
7433;BME280;32233;49.500;7.764;2023-03-13T06:32:36;97452.81;;;9.73;100.00
7433;BME280;32233;49.500;7.764;2023-03-13T06:35:03;97451.34;;;9.77;100.00
7433;BME280;32233;49.500;7.764;2023-03-13T06:37:30;97451.25;;;9.83;100.00
7433;BME280;32233;49.500;7.764;2023-03-13T06:39:57;97429.34;;;9.83;100.00
7433;BME280;32233;49.500;7.764;2023-03-13T06:42:23;97435.22;;;9.85;100.00
7433;BME280;32233;49.500;7.764;2023-03-13T06:44:49;97423.84;;;9.84;100.00
7433;BME280;32233;49.500;7.764;2023-03-13T06:47:16;97434.41;;;9.84;100.00
7433;BME280;32233;49.500;7.764;2023-03-13T06:49:42;97426.41;;;9.91;100.00
7433;BME280;32233;49.500;7.764;2023-03-13T06:52:09;97424.34;;;9.93;100.00
7433;BME280;32233;49.500;7.764;2023-03-13T06:54:35;97425.16;;;9.93;100.00
7433;BME280;32233;49.500;7.764;2023-03-13T06:57:02;97427.94;;;9.99;100.00
7433;BME280;32233;49.500;7.764;2023-03-13T06:59:28;97427.94;;;9.99;100.00
7433;BME280;32233;49.500;7.764;2023-03-13T07:01:55;97414.72;;;9.99;100.00
7433;BME280;32233;49.500;7.764;2023-03-13T07:04:21;97421.97;;;10.03;100.00
7433;BME280;32233;49.500;7.764;2023-03-13T07:06:49;97430.69;;;10.04;100.00
7433;BME280;32233;49.500;7.764;2023-03-13T07:09:16;97428.22;;;10.09;100.00
7433;BME280;32233;49.500;7.764;2023-03-13T07:11:45;97432.69;;;10.08;100.00
7433;BME280;32233;49.500;7.764;2023-03-13T07:14:11;97434.00;;;10.17;100.00
7433;BME280;32233;49.500;7.764;2023-03-13T07:16:43;97437.44;;;10.18;100.00
7433;BME280;32233;49.500;7.764;2023-03-13T07:19:10;97444.13;;;10.21;100.00
7433;BME280;32233;49.500;7.764;2023-03-13T07:21:36;97448.13;;;10.23;100.00
7433;BME280;32233;49.500;7.764;2023-03-13T07:24:03;97453.00;;;10.26;100.00
7433;BME280;32233;49.500;7.764;2023-03-13T07:26:30;97453.56;;;10.28;100.00
7433;BME280;32233;49.500;7.764;2023-03-13T07:28:56;97458.66;;;10.30;100.00
7433;BME280;32233;49.500;7.764;2023-03-13T07:31:23;97444.19;;;10.32;100.00
7433;BME280;32233;49.500;7.764;2023-03-13T07:33:50;97447.72;;;10.26;100.00
7433;BME280;32233;49.500;7.764;2023-03-13T07:36:22;97431.06;;;10.26;100.00
7433;BME280;32233;49.500;7.764;2023-03-13T07:38:49;97443.59;;;10.12;100.00
7433;BME280;32233;49.500;7.764;2023-03-13T07:41:16;97451.38;;;10.07;100.00
7433;BME280;32233;49.500;7.764;2023-03-13T07:43:44;97441.94;;;9.99;100.00
7433;BME280;32233;49.500;7.764;2023-03-13T07:46:13;97427.06;;;10.05;100.00
7433;BME280;32233;49.500;7.764;2023-03-13T07:48:41;97438.94;;;9.96;100.00
7433;BME280;32233;49.500;7.764;2023-03-13T07:51:16;97441.56;;;9.96;100.00
7433;BME280;32233;49.500;7.764;2023-03-13T07:53:46;97439.38;;;9.92;100.00
7433;BME280;32233;49.500;7.764;2023-03-13T07:56:15;97437.91;;;9.97;100.00
7433;BME280;32233;49.500;7.764;2023-03-13T07:58:43;97427.72;;;10.00;100.00
7433;BME280;32233;49.500;7.764;2023-03-13T08:01:11;97430.31;;;9.88;100.00
7433;BME280;32233;49.500;7.764;2023-03-13T08:03:38;97425.97;;;9.94;100.00
7433;BME280;32233;49.500;7.764;2023-03-13T08:06:12;97424.13;;;9.95;100.00
7433;BME280;32233;49.500;7.764;2023-03-13T08:08:39;97422.50;;;9.93;100.00
7433;BME280;32233;49.500;7.764;2023-03-13T08:11:08;97429.13;;;9.84;100.00
7433;BME280;32233;49.500;7.764;2023-03-13T08:13:37;97446.34;;;9.87;100.00
7433;BME280;32233;49.500;7.764;2023-03-13T08:16:12;97419.50;;;9.90;100.00
7433;BME280;32233;49.500;7.764;2023-03-13T08:18:44;97426.84;;;9.88;100.00
7433;BME280;32233;49.500;7.764;2023-03-13T08:21:13;97428.66;;;9.87;100.00
7433;BME280;32233;49.500;7.764;2023-03-13T08:23:41;97431.47;;;9.92;100.00
7433;BME280;32233;49.500;7.764;2023-03-13T08:26:10;97425.41;;;10.04;100.00
7433;BME280;32233;49.500;7.764;2023-03-13T08:28:37;97428.34;;;10.14;100.00
7433;BME280;32233;49.500;7.764;2023-03-13T08:31:09;97414.84;;;10.22;100.00
7433;BME280;32233;49.500;7.764;2023-03-13T08:33:37;97419.53;;;10.20;100.00
7433;BME280;32233;49.500;7.764;2023-03-13T08:36:18;97428.59;;;10.24;100.00
7433;BME280;32233;49.500;7.764;2023-03-13T08:38:46;97427.69;;;10.37;100.00
7433;BME280;32233;49.500;7.764;2023-03-13T08:41:15;97436.41;;;10.37;100.00
7433;BME280;32233;49.500;7.764;2023-03-13T08:43:42;97429.16;;;10.45;100.00
7433;BME280;32233;49.500;7.764;2023-03-13T08:46:09;97434.50;;;10.56;100.00
7433;BME280;32233;49.500;7.764;2023-03-13T08:48:36;97433.25;;;10.59;100.00
7433;BME280;32233;49.500;7.764;2023-03-13T08:51:05;97435.56;;;10.67;100.00
7433;BME280;32233;49.500;7.764;2023-03-13T08:53:32;97433.97;;;10.66;100.00
7433;BME280;32233;49.500;7.764;2023-03-13T08:55:59;97448.09;;;10.72;100.00
7433;BME280;32233;49.500;7.764;2023-03-13T08:58:26;97440.19;;;10.72;100.00
7433;BME280;32233;49.500;7.764;2023-03-13T09:00:54;97443.28;;;10.80;100.00
7433;BME280;32233;49.500;7.764;2023-03-13T09:03:20;97437.91;;;10.87;100.00
7433;BME280;32233;49.500;7.764;2023-03-13T09:05:47;97428.59;;;10.96;100.00
7433;BME280;32233;49.500;7.764;2023-03-13T09:08:21;97423.78;;;11.05;100.00
7433;BME280;32233;49.500;7.764;2023-03-13T09:10:57;97418.41;;;11.23;100.00
7433;BME280;32233;49.500;7.764;2023-03-13T09:13:25;97421.84;;;11.47;100.00
7433;BME280;32233;49.500;7.764;2023-03-13T09:18:22;97423.44;;;11.60;100.00
7433;BME280;32233;49.500;7.764;2023-03-13T09:20:49;97417.47;;;11.41;100.00
7433;BME280;32233;49.500;7.764;2023-03-13T09:23:16;97415.06;;;11.39;100.00
7433;BME280;32233;49.500;7.764;2023-03-13T09:25:42;97418.75;;;11.27;100.00
7433;BME280;32233;49.500;7.764;2023-03-13T09:28:09;97409.53;;;11.29;100.00
7433;BME280;32233;49.500;7.764;2023-03-13T09:30:35;97411.97;;;11.19;100.00
7433;BME280;32233;49.500;7.764;2023-03-13T09:33:02;97414.16;;;11.10;100.00
7433;BME280;32233;49.500;7.764;2023-03-13T09:35:29;97397.69;;;10.97;100.00
7433;BME280;32233;49.500;7.764;2023-03-13T09:37:55;97381.13;;;10.89;100.00
7433;BME280;32233;49.500;7.764;2023-03-13T09:40:24;97384.91;;;11.05;100.00
7433;BME280;32233;49.500;7.764;2023-03-13T09:42:54;97368.69;;;11.25;100.00
7433;BME280;32233;49.500;7.764;2023-03-13T09:45:40;97373.75;;;11.38;100.00
7433;BME280;32233;49.500;7.764;2023-03-13T09:48:23;97379.16;;;11.32;100.00
7433;BME280;32233;49.500;7.764;2023-03-13T09:51:17;97368.94;;;11.35;100.00
7433;BME280;32233;49.500;7.764;2023-03-13T09:53:51;97370.53;;;11.48;100.00
7433;BME280;32233;49.500;7.764;2023-03-13T09:56:23;97363.66;;;11.35;100.00
7433;BME280;32233;49.500;7.764;2023-03-13T09:59:35;97357.06;;;11.26;100.00
7433;BME280;32233;49.500;7.764;2023-03-13T10:02:19;97356.88;;;11.28;100.00
7433;BME280;32233;49.500;7.764;2023-03-13T10:04:52;97358.66;;;11.51;100.00
7433;BME280;32233;49.500;7.764;2023-03-13T10:07:19;97354.00;;;11.70;100.00
7433;BME280;32233;49.500;7.764;2023-03-13T10:09:46;97359.97;;;11.77;100.00
7433;BME280;32233;49.500;7.764;2023-03-13T10:12:18;97357.41;;;11.82;100.00
7433;BME280;32233;49.500;7.764;2023-03-13T10:17:38;97349.75;;;12.09;100.00
7433;BME280;32233;49.500;7.764;2023-03-13T10:23:14;97336.03;;;12.12;100.00
7433;BME280;32233;49.500;7.764;2023-03-13T10:25:43;97333.25;;;12.35;99.28
7433;BME280;32233;49.500;7.764;2023-03-13T10:28:12;97330.38;;;12.54;98.42
7433;BME280;32233;49.500;7.764;2023-03-13T10:30:43;97323.53;;;12.75;97.07
7433;BME280;32233;49.500;7.764;2023-03-13T10:35:40;97320.56;;;12.71;96.18
7433;BME280;32233;49.500;7.764;2023-03-13T10:38:17;97306.25;;;12.89;94.51
7433;BME280;32233;49.500;7.764;2023-03-13T10:40:59;97310.78;;;13.27;92.56
7433;BME280;32233;49.500;7.764;2023-03-13T10:43:27;97304.31;;;13.40;92.61
7433;BME280;32233;49.500;7.764;2023-03-13T10:45:54;97303.56;;;13.23;92.27
7433;BME280;32233;49.500;7.764;2023-03-13T10:48:28;97309.47;;;13.30;91.85
7433;BME280;32233;49.500;7.764;2023-03-13T10:50:56;97301.75;;;13.50;91.82
7433;BME280;32233;49.500;7.764;2023-03-13T10:55:52;97289.81;;;14.29;87.77
7433;BME280;32233;49.500;7.764;2023-03-13T11:03:56;97245.78;;;14.75;83.19
7433;BME280;32233;49.500;7.764;2023-03-13T11:11:27;97240.00;;;15.61;77.65
7433;BME280;32233;49.500;7.764;2023-03-13T11:14:13;97233.31;;;15.49;78.68
7433;BME280;32233;49.500;7.764;2023-03-13T11:16:46;97228.22;;;17.16;72.97
7433;BME280;32233;49.500;7.764;2023-03-13T11:19:47;97224.66;;;16.45;72.78
7433;BME280;32233;49.500;7.764;2023-03-13T11:22:45;97216.09;;;16.48;73.60
7433;BME280;32233;49.500;7.764;2023-03-13T11:25:19;97227.59;;;16.18;74.70
7433;BME280;32233;49.500;7.764;2023-03-13T11:30:44;97204.41;;;15.10;79.83
7433;BME280;32233;49.500;7.764;2023-03-13T11:33:37;97200.75;;;15.26;80.58
7433;BME280;32233;49.500;7.764;2023-03-13T11:36:14;97192.00;;;15.31;78.55
7433;BME280;32233;49.500;7.764;2023-03-13T11:38:51;97187.13;;;15.07;80.53
7433;BME280;32233;49.500;7.764;2023-03-13T11:46:58;97159.31;;;16.32;75.42
7433;BME280;32233;49.500;7.764;2023-03-13T11:58:22;97129.38;;;17.26;68.55
7433;BME280;32233;49.500;7.764;2023-03-13T12:01:01;97105.91;;;17.23;70.04
7433;BME280;32233;49.500;7.764;2023-03-13T12:06:30;97093.84;;;19.19;61.37
7433;BME280;32233;49.500;7.764;2023-03-13T12:09:13;97094.16;;;18.69;62.31
7433;BME280;32233;49.500;7.764;2023-03-13T12:12:00;97086.34;;;21.01;55.12
7433;BME280;32233;49.500;7.764;2023-03-13T12:14:36;97080.63;;;21.17;54.39
7433;BME280;32233;49.500;7.764;2023-03-13T12:17:11;97083.09;;;20.77;54.65
7433;BME280;32233;49.500;7.764;2023-03-13T12:19:55;97089.69;;;18.17;61.66
7433;BME280;32233;49.500;7.764;2023-03-13T12:22:29;97076.47;;;17.33;66.16
7433;BME280;32233;49.500;7.764;2023-03-13T12:25:03;97077.47;;;17.03;67.25
7433;BME280;32233;49.500;7.764;2023-03-13T12:27:46;97070.38;;;17.22;66.59
7433;BME280;32233;49.500;7.764;2023-03-13T12:30:23;97059.44;;;17.58;65.74
7433;BME280;32233;49.500;7.764;2023-03-13T12:33:33;97065.28;;;17.26;67.03
7433;BME280;32233;49.500;7.764;2023-03-13T12:36:19;97066.16;;;17.50;65.51
7433;BME280;32233;49.500;7.764;2023-03-13T12:38:48;97046.97;;;17.82;63.76
7433;BME280;32233;49.500;7.764;2023-03-13T12:43:58;97051.22;;;17.83;62.81
7433;BME280;32233;49.500;7.764;2023-03-13T12:52:05;97030.28;;;17.62;63.67
7433;BME280;32233;49.500;7.764;2023-03-13T12:54:59;97009.00;;;18.95;59.23
7433;BME280;32233;49.500;7.764;2023-03-13T12:59:57;97002.75;;;18.62;59.96
7433;BME280;32233;49.500;7.764;2023-03-13T13:02:31;96984.09;;;20.07;56.53
7433;BME280;32233;49.500;7.764;2023-03-13T13:04:59;96979.53;;;20.85;52.57
7433;BME280;32233;49.500;7.764;2023-03-13T13:07:34;96964.84;;;20.18;53.37
7433;BME280;32233;49.500;7.764;2023-03-13T13:12:36;96954.00;;;20.23;52.75
7433;BME280;32233;49.500;7.764;2023-03-13T13:15:15;96945.66;;;19.97;53.99
7433;BME280;32233;49.500;7.764;2023-03-13T13:20:45;96938.16;;;18.88;57.12
7433;BME280;32233;49.500;7.764;2023-03-13T13:29:00;96915.28;;;18.39;59.36
7433;BME280;32233;49.500;7.764;2023-03-13T13:36:59;96894.69;;;18.58;58.83
7433;BME280;32233;49.500;7.764;2023-03-13T13:41:59;96903.19;;;18.03;60.64
7433;BME280;32233;49.500;7.764;2023-03-13T13:44:27;96881.25;;;17.82;61.15
7433;BME280;32233;49.500;7.764;2023-03-13T13:46:56;96880.44;;;17.58;62.10
7433;BME280;32233;49.500;7.764;2023-03-13T13:49:31;96863.91;;;17.32;63.11
7433;BME280;32233;49.500;7.764;2023-03-13T13:57:17;96825.72;;;17.55;61.46
7433;BME280;32233;49.500;7.764;2023-03-13T13:59:49;96846.72;;;17.62;62.63
7433;BME280;32233;49.500;7.764;2023-03-13T14:02:20;96838.06;;;17.70;63.42
7433;BME280;32233;49.500;7.764;2023-03-13T14:04:48;96822.19;;;17.60;62.25
7433;BME280;32233;49.500;7.764;2023-03-13T14:07:33;96819.06;;;17.77;63.32
7433;BME280;32233;49.500;7.764;2023-03-13T14:10:14;96799.50;;;17.81;62.34
7433;BME280;32233;49.500;7.764;2023-03-13T14:12:51;96789.19;;;17.70;62.57
7433;BME280;32233;49.500;7.764;2023-03-13T14:15:27;96775.34;;;17.68;62.55
7433;BME280;32233;49.500;7.764;2023-03-13T14:17:58;96773.09;;;17.75;61.97
7433;BME280;32233;49.500;7.764;2023-03-13T14:23:04;96771.19;;;17.56;61.70
7433;BME280;32233;49.500;7.764;2023-03-13T14:25:42;96752.75;;;17.55;62.47
7433;BME280;32233;49.500;7.764;2023-03-13T14:28:19;96725.00;;;17.56;62.14
7433;BME280;32233;49.500;7.764;2023-03-13T14:30:49;96718.03;;;17.55;62.19
7433;BME280;32233;49.500;7.764;2023-03-13T14:33:16;96727.28;;;17.44;62.10
7433;BME280;32233;49.500;7.764;2023-03-13T14:35:43;96704.16;;;17.34;62.11
7433;BME280;32233;49.500;7.764;2023-03-13T14:38:19;96729.81;;;17.35;61.46
7433;BME280;32233;49.500;7.764;2023-03-13T14:40:46;96726.84;;;17.37;62.32
7433;BME280;32233;49.500;7.764;2023-03-13T14:43:39;96737.59;;;17.50;62.47
7433;BME280;32233;49.500;7.764;2023-03-13T14:46:29;96732.41;;;17.59;61.79
7433;BME280;32233;49.500;7.764;2023-03-13T14:49:04;96734.28;;;17.58;62.00
7433;BME280;32233;49.500;7.764;2023-03-13T14:51:31;96721.22;;;17.57;61.81
7433;BME280;32233;49.500;7.764;2023-03-13T14:54:00;96713.34;;;17.47;62.55
7433;BME280;32233;49.500;7.764;2023-03-13T14:56:37;96712.91;;;17.40;62.41
7433;BME280;32233;49.500;7.764;2023-03-13T14:59:18;96696.94;;;17.34;62.23
7433;BME280;32233;49.500;7.764;2023-03-13T15:01:58;96698.44;;;17.22;62.49
7433;BME280;32233;49.500;7.764;2023-03-13T15:04:48;96697.78;;;17.11;62.95
7433;BME280;32233;49.500;7.764;2023-03-13T15:07:15;96699.44;;;17.07;63.04